Time;durP1;ratioP1;P1;durP2;ratioP2;P2;SDS_P1;SDS_P2;PMS_P1;PMS_P2;Temp;Humidity;BMP_temperature;BMP_pressure;BME280_temperature;BME280_humidity;BME280_pressure;Samples;Min_cycle;Max_cycle;Signal;HPM_P1;HPM_P2
2022/04/11 00:00:17;;;;;;;0.70;0.50;;;4.30;99.90;;;;;;5051277;28;20238;-73
2022/04/11 00:02:42;;;;;;;0.70;0.50;;;4.30;99.90;;;;;;5052180;28;20171;-73
2022/04/11 00:05:08;;;;;;;0.70;0.50;;;4.30;99.90;;;;;;5054853;28;20174;-73
2022/04/11 00:07:33;;;;;;;0.70;0.50;;;4.30;99.90;;;;;;5054638;28;20170;-73
2022/04/11 00:09:59;;;;;;;0.70;0.50;;;4.20;99.90;;;;;;5054803;28;20640;-73
2022/04/11 00:12:24;;;;;;;0.80;0.70;;;4.30;99.90;;;;;;5054786;28;20167;-73
2022/04/11 00:14:50;;;;;;;1.57;1.47;;;4.30;99.90;;;;;;5054705;28;20167;-73
2022/04/11 00:17:16;;;;;;;0.70;0.50;;;4.20;99.90;;;;;;5054296;28;20221;-73
2022/04/11 00:19:42;;;;;;;0.70;0.50;;;4.20;99.90;;;;;;5054759;28;20163;-73
2022/04/11 00:22:08;;;;;;;0.70;0.50;;;4.20;99.90;;;;;;5054553;28;20459;-73
2022/04/11 00:24:33;;;;;;;0.90;0.90;;;4.20;99.90;;;;;;5054565;28;20662;-73
2022/04/11 00:26:59;;;;;;;0.70;0.50;;;4.20;99.90;;;;;;5054143;28;20187;-72
2022/04/11 00:29:24;;;;;;;0.70;0.50;;;4.20;99.90;;;;;;5054472;28;20686;-73
2022/04/11 00:31:50;;;;;;;1.00;0.70;;;4.20;99.90;;;;;;5054374;28;20167;-73
2022/04/11 00:34:15;;;;;;;0.77;0.60;;;4.20;99.90;;;;;;5054347;28;20163;-73
2022/04/11 00:36:41;;;;;;;0.93;0.93;;;4.20;99.90;;;;;;5053957;28;20872;-72
2022/04/11 00:39:06;;;;;;;0.70;0.60;;;4.20;99.90;;;;;;5054219;28;20159;-73
2022/04/11 00:41:32;;;;;;;0.77;0.50;;;4.20;99.90;;;;;;5054198;28;20173;-73
2022/04/11 00:43:57;;;;;;;0.80;0.60;;;4.20;99.90;;;;;;5054201;28;20655;-73
2022/04/11 00:46:23;;;;;;;0.80;0.70;;;4.20;99.90;;;;;;5053764;28;20191;-72
2022/04/11 00:48:48;;;;;;;0.70;0.50;;;4.30;99.90;;;;;;5052790;28;20205;-73
2022/04/11 00:51:19;;;;;;;0.70;0.50;;;4.30;99.90;;;;;;5052721;28;20175;-73
2022/04/11 00:53:46;;;;;;;1.67;0.73;;;4.20;99.90;;;;;;5052629;28;20217;-73
2022/04/11 00:56:14;;;;;;;1.50;1.37;;;4.20;99.90;;;;;;5053500;28;20961;-72
2022/04/11 00:58:40;;;;;;;0.80;0.60;;;4.30;99.90;;;;;;5053857;28;20410;-73
2022/04/11 01:01:07;;;;;;;0.70;0.50;;;4.30;99.90;;;;;;5053923;28;20409;-73
2022/04/11 01:03:33;;;;;;;0.80;0.70;;;4.30;99.90;;;;;;5052473;28;20405;-72
2022/04/11 01:05:59;;;;;;;0.70;0.50;;;4.30;99.90;;;;;;5053536;28;20968;-74
2022/04/11 01:08:25;;;;;;;1.10;1.03;;;4.30;99.90;;;;;;5053631;28;21120;-73
2022/04/11 01:10:52;;;;;;;0.70;0.50;;;4.30;99.90;;;;;;5052472;28;20547;-73
2022/04/11 01:13:17;;;;;;;0.90;0.70;;;4.40;99.90;;;;;;5053287;28;20174;-73
2022/04/11 01:15:57;;;;;;;0.70;0.50;;;4.40;99.90;;;;;;5053523;28;20465;-73
2022/04/11 01:18:23;;;;;;;0.70;0.50;;;4.40;99.90;;;;;;5053339;28;20711;-73
2022/04/11 01:20:49;;;;;;;1.27;1.17;;;4.40;99.90;;;;;;5052165;28;20409;-73
2022/04/11 01:23:15;;;;;;;0.70;0.50;;;4.40;99.90;;;;;;5052077;28;20797;-73
2022/04/11 01:25:42;;;;;;;0.70;0.50;;;4.50;99.90;;;;;;5053320;28;20432;-73
2022/04/11 01:28:07;;;;;;;0.70;0.60;;;4.50;99.90;;;;;;5053140;28;20167;-72
2022/04/11 01:30:33;;;;;;;0.70;0.50;;;4.50;99.90;;;;;;5053314;28;20499;-73
2022/04/11 01:32:58;;;;;;;0.70;0.50;;;4.50;99.90;;;;;;5053336;28;20254;-73
2022/04/11 01:35:26;;;;;;;0.80;0.60;;;4.50;99.90;;;;;;5052903;28;20222;-73
2022/04/11 01:37:52;;;;;;;0.70;0.50;;;4.60;99.90;;;;;;5052973;28;20246;-73
2022/04/11 01:40:18;;;;;;;0.80;0.60;;;4.60;99.90;;;;;;5053076;28;20414;-73
2022/04/11 01:42:44;;;;;;;0.70;0.50;;;4.60;99.90;;;;;;5052946;28;20417;-72
2022/04/11 01:45:11;;;;;;;0.80;0.77;;;4.60;99.90;;;;;;5053005;28;20590;-73
2022/04/11 01:47:40;;;;;;;1.00;0.87;;;4.60;99.90;;;;;;5052697;28;20217;-73
2022/04/11 01:50:07;;;;;;;0.80;0.60;;;4.60;99.90;;;;;;5052835;28;20459;-73
2022/04/11 01:52:33;;;;;;;0.80;0.70;;;4.60;99.90;;;;;;5052915;28;20412;-73
2022/04/11 01:54:58;;;;;;;0.77;0.63;;;4.60;99.90;;;;;;5052594;28;20421;-73
2022/04/11 01:57:24;;;;;;;0.80;0.70;;;4.60;99.90;;;;;;5052416;28;20226;-72
2022/04/11 01:59:49;;;;;;;1.63;1.53;;;4.60;99.90;;;;;;5052783;28;20241;-73
2022/04/11 02:02:15;;;;;;;0.80;0.70;;;4.60;99.90;;;;;;5052752;28;20167;-73
2022/04/11 02:04:40;;;;;;;1.10;1.00;;;4.60;99.90;;;;;;5052550;28;20604;-73
2022/04/11 02:07:06;;;;;;;0.70;0.50;;;4.60;99.90;;;;;;5052276;28;20183;-73
2022/04/11 02:09:31;;;;;;;0.70;0.50;;;4.60;99.90;;;;;;5052509;28;20171;-73
2022/04/11 02:11:57;;;;;;;0.90;0.80;;;4.60;99.90;;;;;;5052599;28;20167;-73
2022/04/11 02:14:23;;;;;;;0.97;0.90;;;4.60;99.90;;;;;;5052383;28;20163;-72
2022/04/11 02:16:48;;;;;;;0.70;0.50;;;4.60;99.90;;;;;;5052154;28;20234;-73
2022/04/11 02:19:14;;;;;;;0.70;0.50;;;4.50;99.90;;;;;;5052457;28;20166;-73
2022/04/11 02:21:39;;;;;;;0.70;0.50;;;4.50;99.90;;;;;;5051071;28;20170;-73
2022/04/11 02:24:05;;;;;;;0.70;0.50;;;4.40;99.90;;;;;;5052324;28;20580;-73
2022/04/11 02:26:31;;;;;;;0.70;0.50;;;4.40;99.90;;;;;;5051516;28;20667;-73
2022/04/11 02:28:57;;;;;;;1.33;1.23;;;4.40;99.90;;;;;;5052292;28;20416;-73
2022/04/11 02:31:22;;;;;;;0.70;0.50;;;4.40;99.90;;;;;;5052213;28;20174;-73
2022/04/11 02:33:47;;;;;;;0.70;0.60;;;4.30;99.90;;;;;;5052105;28;20770;-73
2022/04/11 02:36:13;;;;;;;0.70;0.50;;;4.30;99.90;;;;;;5051783;28;20575;-73
2022/04/11 02:38:39;;;;;;;0.83;0.67;;;4.30;99.90;;;;;;5052137;28;20167;-73
2022/04/11 02:41:04;;;;;;;0.70;0.50;;;4.30;99.90;;;;;;5052070;28;20166;-73
2022/04/11 02:43:30;;;;;;;0.70;0.50;;;4.30;99.90;;;;;;5052029;28;20177;-73
2022/04/11 02:45:55;;;;;;;0.80;0.70;;;4.20;99.90;;;;;;5051917;28;20552;-73
2022/04/11 02:48:21;;;;;;;0.70;0.50;;;4.20;99.90;;;;;;5051752;28;20257;-73
2022/04/11 02:50:46;;;;;;;0.70;0.50;;;4.20;99.90;;;;;;5051930;28;20171;-73
2022/04/11 02:53:12;;;;;;;0.70;0.50;;;4.10;99.90;;;;;;5050733;28;20720;-73
2022/04/11 02:55:37;;;;;;;0.70;0.50;;;4.20;99.90;;;;;;5051607;28;20284;-73
2022/04/11 02:58:03;;;;;;;1.00;0.90;;;4.20;99.90;;;;;;5051904;28;20212;-73
2022/04/11 03:00:28;;;;;;;0.70;0.50;;;4.10;99.90;;;;;;5050862;28;20198;-73
2022/04/11 03:02:54;;;;;;;0.80;0.60;;;4.10;99.90;;;;;;5051812;28;20166;-73
2022/04/11 03:05:19;;;;;;;0.70;0.50;;;4.10;99.90;;;;;;5051113;28;20639;-73
2022/04/11 03:07:45;;;;;;;0.70;0.50;;;4.10;99.90;;;;;;5051575;28;20167;-73
2022/04/11 03:10:10;;;;;;;0.70;0.50;;;4.10;99.90;;;;;;5051832;28;20163;-73
2022/04/11 03:12:36;;;;;;;0.70;0.50;;;4.10;99.90;;;;;;5051671;28;20171;-73
2022/04/11 03:15:03;;;;;;;1.20;0.83;;;4.10;99.90;;;;;;5051648;28;20181;-73
2022/04/11 03:17:28;;;;;;;0.90;0.90;;;4.10;99.90;;;;;;5050112;28;20567;-74
2022/04/11 03:19:54;;;;;;;0.70;0.50;;;4.10;99.90;;;;;;5051729;28;20497;-73
2022/04/11 03:22:19;;;;;;;0.70;0.50;;;4.10;99.90;;;;;;5051599;28;20246;-73
2022/04/11 03:24:45;;;;;;;0.70;0.50;;;4.10;99.90;;;;;;5051608;28;20205;-73
2022/04/11 03:27:10;;;;;;;0.70;0.60;;;4.10;99.90;;;;;;5051263;28;20190;-73
2022/04/11 03:29:36;;;;;;;0.77;0.60;;;4.10;99.90;;;;;;5051743;28;20194;-73
2022/04/11 03:32:02;;;;;;;0.80;0.70;;;4.10;99.90;;;;;;5051639;28;20655;-73
2022/04/11 03:34:28;;;;;;;0.90;0.70;;;4.10;99.90;;;;;;5051524;28;20172;-73
2022/04/11 03:36:53;;;;;;;0.70;0.60;;;4.10;99.90;;;;;;5049970;28;20465;-73
2022/04/11 03:39:19;;;;;;;0.70;0.50;;;4.20;99.90;;;;;;5055031;28;20164;-73
2022/04/11 03:41:44;;;;;;;0.70;0.50;;;4.20;99.90;;;;;;5055212;28;20213;-75
2022/04/11 03:44:10;;;;;;;0.70;0.53;;;4.20;99.90;;;;;;5055369;28;20194;-73
2022/04/11 03:46:37;;;;;;;0.70;0.53;;;4.20;99.90;;;;;;5055021;28;20179;-73
2022/04/11 03:49:03;;;;;;;0.70;0.50;;;4.20;99.90;;;;;;5055232;28;20393;-73
2022/04/11 03:51:28;;;;;;;0.70;0.60;;;4.20;99.90;;;;;;5055255;28;20965;-73
2022/04/11 03:53:55;;;;;;;2.13;0.93;;;4.20;99.90;;;;;;5055137;28;20213;-73
2022/04/11 03:56:20;;;;;;;0.70;0.50;;;4.20;99.90;;;;;;5054659;28;20219;-74
2022/04/11 03:58:46;;;;;;;0.83;0.60;;;4.10;99.90;;;;;;5055044;28;20439;-74
2022/04/11 04:01:12;;;;;;;0.90;0.80;;;4.20;99.90;;;;;;5055009;28;20221;-73
2022/04/11 04:03:39;;;;;;;0.70;0.50;;;4.10;99.90;;;;;;5054929;28;20167;-74
2022/04/11 04:06:04;;;;;;;0.70;0.50;;;4.10;99.90;;;;;;5054921;28;20428;-73
2022/04/11 04:08:30;;;;;;;0.70;0.50;;;4.00;99.90;;;;;;5053412;28;20771;-74
2022/04/11 04:10:55;;;;;;;0.70;0.50;;;4.00;99.90;;;;;;5054830;28;20252;-73
2022/04/11 04:13:21;;;;;;;0.70;0.50;;;3.90;99.90;;;;;;5054762;28;20179;-73
2022/04/11 04:15:46;;;;;;;0.80;0.70;;;3.80;99.90;;;;;;5054492;28;20195;-74
2022/04/11 04:18:12;;;;;;;0.70;0.50;;;3.80;99.90;;;;;;5054626;28;20159;-73
2022/04/11 04:20:39;;;;;;;0.70;0.50;;;3.80;99.90;;;;;;5054654;28;20178;-73
2022/04/11 04:23:05;;;;;;;0.70;0.50;;;3.70;99.90;;;;;;5054636;28;20159;-74
2022/04/11 04:25:33;;;;;;;0.70;0.50;;;3.60;99.90;;;;;;5054396;28;20422;-73
2022/04/11 04:27:58;;;;;;;0.70;0.50;;;3.50;99.90;;;;;;5054313;28;20416;-74
2022/04/11 04:30:24;;;;;;;0.80;0.70;;;3.50;99.90;;;;;;5054435;28;20409;-74
2022/04/11 04:32:49;;;;;;;0.70;0.50;;;3.40;99.90;;;;;;5054481;28;20182;-74
2022/04/11 04:35:15;;;;;;;0.70;0.50;;;3.30;99.90;;;;;;5054220;28;20198;-73
2022/04/11 04:37:40;;;;;;;0.70;0.50;;;3.30;99.90;;;;;;5054219;28;20165;-74
2022/04/11 04:40:07;;;;;;;1.60;0.83;;;3.20;99.90;;;;;;5054258;28;20401;-74
2022/04/11 04:42:33;;;;;;;0.70;0.50;;;3.20;99.90;;;;;;5054227;28;20174;-74
2022/04/11 04:44:58;;;;;;;0.70;0.50;;;3.20;99.90;;;;;;5054201;28;20402;-74
2022/04/11 04:47:25;;;;;;;0.70;0.50;;;3.10;99.90;;;;;;5053974;28;20190;-74
2022/04/11 04:49:51;;;;;;;0.70;0.50;;;3.10;99.90;;;;;;5053785;28;20212;-73
2022/04/11 04:52:16;;;;;;;1.00;0.90;;;3.10;99.90;;;;;;5052844;28;20405;-74
2022/04/11 04:54:42;;;;;;;0.70;0.50;;;3.10;99.90;;;;;;5053835;28;20178;-73
2022/04/11 04:57:08;;;;;;;0.70;0.50;;;3.00;99.90;;;;;;5053706;28;20914;-73
2022/04/11 04:59:34;;;;;;;0.70;0.50;;;3.00;99.90;;;;;;5053907;28;20193;-73
2022/04/11 05:01:59;;;;;;;0.70;0.50;;;3.00;99.90;;;;;;5054118;28;20894;-73
2022/04/11 05:04:25;;;;;;;0.70;0.50;;;3.00;99.90;;;;;;5052346;28;20658;-73
2022/04/11 05:06:50;;;;;;;0.70;0.50;;;2.90;99.90;;;;;;5052285;28;20194;-73
2022/04/11 05:09:17;;;;;;;0.70;0.50;;;2.90;99.90;;;;;;5053684;28;20171;-73
2022/04/11 05:11:42;;;;;;;0.70;0.50;;;2.90;99.90;;;;;;5053638;28;20171;-74
2022/04/11 05:14:08;;;;;;;0.70;0.50;;;3.00;99.90;;;;;;5053619;28;20482;-73
2022/04/11 05:16:33;;;;;;;0.70;0.43;;;3.00;99.90;;;;;;5053233;28;20545;-74
2022/04/11 05:18:59;;;;;;;0.70;0.50;;;3.00;99.90;;;;;;5053618;28;20194;-74
2022/04/11 05:21:25;;;;;;;0.70;0.50;;;3.00;99.90;;;;;;5053501;28;20202;-74
2022/04/11 05:23:50;;;;;;;0.70;0.50;;;3.00;99.90;;;;;;5053501;28;20177;-74
2022/04/11 05:26:16;;;;;;;0.80;0.60;;;3.10;99.90;;;;;;5053322;28;20186;-75
2022/04/11 05:28:42;;;;;;;0.80;0.70;;;3.20;99.90;;;;;;5053203;28;20167;-73
2022/04/11 05:31:07;;;;;;;0.70;0.50;;;3.40;99.90;;;;;;5053287;28;20208;-74
2022/04/11 05:33:33;;;;;;;1.07;0.97;;;3.60;99.90;;;;;;5053323;28;20427;-74
2022/04/11 05:35:58;;;;;;;0.70;0.50;;;3.90;99.90;;;;;;5052961;28;20210;-74
2022/04/11 05:38:24;;;;;;;0.70;0.50;;;4.30;99.90;;;;;;5052968;28;20167;-74
2022/04/11 05:40:50;;;;;;;0.70;0.50;;;4.70;99.90;;;;;;5051806;28;20285;-74
2022/04/11 05:43:16;;;;;;;0.70;0.50;;;5.20;99.90;;;;;;5051720;28;20167;-74
2022/04/11 05:45:42;;;;;;;0.80;0.60;;;5.60;99.90;;;;;;5052992;28;20765;-74
2022/04/11 05:48:09;;;;;;;0.87;0.67;;;6.00;99.90;;;;;;5051496;28;20205;-74
2022/04/11 05:50:35;;;;;;;0.90;0.60;;;6.40;99.90;;;;;;5052943;28;20409;-74
2022/04/11 05:53:01;;;;;;;0.70;0.60;;;6.80;99.90;;;;;;5052905;28;20462;-74
2022/04/11 05:55:27;;;;;;;0.70;0.60;;;7.10;99.90;;;;;;5052591;28;20739;-74
2022/04/11 05:57:53;;;;;;;0.80;0.60;;;7.40;99.90;;;;;;5052577;28;20394;-74
2022/04/11 06:00:20;;;;;;;2.20;0.83;;;7.80;99.90;;;;;;5052020;28;20909;-74
2022/04/11 06:02:45;;;;;;;0.90;0.80;;;8.20;99.90;;;;;;5052743;28;20163;-74
2022/04/11 06:05:11;;;;;;;1.63;0.90;;;8.60;99.90;;;;;;5052870;28;20424;-75
2022/04/11 06:07:37;;;;;;;0.90;0.60;;;9.10;99.90;;;;;;5052623;28;20213;-75
2022/04/11 06:10:04;;;;;;;0.87;0.60;;;9.60;99.90;;;;;;5052565;28;20405;-74
2022/04/11 06:12:30;;;;;;;0.90;0.73;;;10.00;99.90;;;;;;5052431;28;20394;-74
2022/04/11 06:14:55;;;;;;;0.80;0.60;;;10.40;99.90;;;;;;5052414;28;20451;-74
2022/04/11 06:17:24;;;;;;;1.00;0.70;;;10.80;99.90;;;;;;5052081;28;20186;-75
2022/04/11 06:19:54;;;;;;;0.90;0.70;;;11.40;99.90;;;;;;5052448;28;20170;-75
2022/04/11 06:22:21;;;;;;;0.80;0.60;;;11.80;99.90;;;;;;5052161;28;20899;-75
2022/04/11 06:24:48;;;;;;;0.90;0.80;;;12.30;99.90;;;;;;5052338;28;20406;-75
2022/04/11 06:27:15;;;;;;;1.73;1.10;;;12.60;99.90;;;;;;5051953;28;20425;-75
2022/04/11 06:29:40;;;;;;;1.43;1.33;;;12.90;99.70;;;;;;5052316;28;20758;-74
2022/04/11 06:32:06;;;;;;;1.00;0.80;;;13.30;95.70;;;;;;5052217;28;20412;-75
2022/04/11 06:34:32;;;;;;;1.00;0.83;;;13.40;92.40;;;;;;5052250;28;20171;-75
2022/04/11 06:36:58;;;;;;;1.23;1.13;;;13.50;90.50;;;;;;5050678;28;20206;-75
2022/04/11 06:39:24;;;;;;;2.60;1.43;;;13.30;86.70;;;;;;5050875;28;20495;-75
2022/04/11 06:41:49;;;;;;;1.60;1.20;;;13.40;85.50;;;;;;5052085;28;20628;-75
2022/04/11 06:44:15;;;;;;;1.03;0.93;;;13.50;84.60;;;;;;5052064;28;20171;-75
2022/04/11 06:46:41;;;;;;;1.67;1.17;;;13.70;81.30;;;;;;5051842;28;20223;-75
2022/04/11 06:49:07;;;;;;;3.13;1.27;;;13.70;80.30;;;;;;5051974;28;20898;-75
2022/04/11 06:51:32;;;;;;;1.10;0.90;;;14.20;81.40;;;;;;5051970;28;20190;-75
2022/04/11 06:53:58;;;;;;;2.37;1.40;;;14.70;79.90;;;;;;5052100;28;20169;-75
2022/04/11 06:56:23;;;;;;;1.20;0.80;;;15.00;77.70;;;;;;5051670;28;20238;-75
2022/04/11 06:58:49;;;;;;;1.30;0.90;;;15.40;76.90;;;;;;5051726;28;20182;-75
2022/04/11 07:01:15;;;;;;;1.10;1.00;;;15.90;74.60;;;;;;5051965;28;20643;-75
2022/04/11 07:03:40;;;;;;;1.20;0.93;;;16.40;73.50;;;;;;5051844;28;20246;-75
2022/04/11 07:06:06;;;;;;;1.40;1.30;;;16.90;69.80;;;;;;5051745;28;20229;-75
2022/04/11 07:08:31;;;;;;;0.90;0.80;;;17.20;67.50;;;;;;5051670;28;20178;-75
2022/04/11 07:10:58;;;;;;;2.77;1.73;;;17.40;64.60;;;;;;5051794;28;20546;-75
2022/04/11 07:13:24;;;;;;;1.40;1.07;;;17.60;63.30;;;;;;5055613;28;20533;-75
2022/04/11 07:15:49;;;;;;;0.90;0.80;;;17.50;60.00;;;;;;5055713;28;20456;-75
2022/04/11 07:18:15;;;;;;;1.77;0.70;;;17.80;60.00;;;;;;5055522;28;20182;-75
2022/04/11 07:20:41;;;;;;;1.63;1.47;;;17.80;58.50;;;;;;5055632;28;20225;-75
2022/04/11 07:23:06;;;;;;;1.83;1.20;;;17.90;58.90;;;;;;5054625;28;20179;-75
2022/04/11 07:25:32;;;;;;;1.00;0.87;;;18.20;58.80;;;;;;5055511;28;20201;-75
2022/04/11 07:27:58;;;;;;;0.97;0.87;;;18.20;57.80;;;;;;5055363;28;20174;-75
2022/04/11 07:30:23;;;;;;;1.70;1.60;;;18.30;56.50;;;;;;5055561;28;20202;-75
2022/04/11 07:32:49;;;;;;;0.90;0.73;;;18.40;55.30;;;;;;5055550;28;20262;-75
2022/04/11 07:35:14;;;;;;;1.10;1.00;;;18.50;55.00;;;;;;5055277;28;20602;-75
2022/04/11 07:37:40;;;;;;;1.50;1.23;;;18.80;55.20;;;;;;5053895;28;20625;-75
2022/04/11 07:40:06;;;;;;;2.77;1.33;;;19.10;55.10;;;;;;5055318;28;20198;-75
2022/04/11 07:42:32;;;;;;;1.10;1.00;;;19.40;53.00;;;;;;5055348;28;20245;-75
2022/04/11 07:44:57;;;;;;;1.47;1.37;;;19.60;52.50;;;;;;5055432;28;20962;-75
2022/04/11 07:47:23;;;;;;;1.10;1.00;;;19.80;51.70;;;;;;5055000;28;20190;-75
2022/04/11 07:49:48;;;;;;;2.40;1.37;;;20.10;51.10;;;;;;5055193;28;20171;-75
2022/04/11 07:52:14;;;;;;;2.37;2.07;;;20.30;51.00;;;;;;5055238;28;20190;-75
2022/04/11 07:54:40;;;;;;;1.97;1.30;;;21.00;51.60;;;;;;5055046;28;20187;-75
2022/04/11 07:57:07;;;;;;;2.33;1.20;;;21.40;49.00;;;;;;5054703;28;20230;-75
2022/04/11 07:59:33;;;;;;;1.50;1.40;;;21.60;48.80;;;;;;5055031;28;20274;-75
2022/04/11 08:01:58;;;;;;;7.10;1.83;;;21.70;47.70;;;;;;5053975;28;20971;-75
2022/04/11 08:04:24;;;;;;;1.00;0.90;;;22.30;48.30;;;;;;5054805;28;20246;-75
2022/04/11 08:06:49;;;;;;;1.53;1.00;;;22.40;46.60;;;;;;5054571;28;20222;-75
2022/04/11 08:09:15;;;;;;;1.67;1.37;;;22.50;46.80;;;;;;5054814;28;20174;-75
2022/04/11 08:11:40;;;;;;;1.70;1.60;;;22.80;46.50;;;;;;5054804;28;20170;-75
2022/04/11 08:14:06;;;;;;;1.20;1.10;;;23.00;45.20;;;;;;5054760;28;20171;-75
2022/04/11 08:16:32;;;;;;;1.67;1.50;;;23.20;44.40;;;;;;5054597;28;20199;-75
2022/04/11 08:18:57;;;;;;;1.50;1.30;;;23.50;44.20;;;;;;5054373;28;20529;-76
2022/04/11 08:21:23;;;;;;;1.63;1.10;;;24.00;44.50;;;;;;5054647;28;20628;-76
2022/04/11 08:23:48;;;;;;;1.33;1.10;;;24.70;43.40;;;;;;5053822;28;20644;-75
2022/04/11 08:26:14;;;;;;;3.47;1.63;;;25.40;42.30;;;;;;5054384;28;20195;-76
2022/04/11 08:28:40;;;;;;;1.30;1.20;;;25.60;40.60;;;;;;5054298;28;20178;-76
2022/04/11 08:31:05;;;;;;;2.43;2.23;;;26.00;40.80;;;;;;5054483;28;20441;-76
2022/04/11 08:33:31;;;;;;;1.50;1.30;;;26.40;39.60;;;;;;5054336;28;20178;-76
2022/04/11 08:35:56;;;;;;;2.07;1.10;;;26.60;38.90;;;;;;5054245;28;20241;-76
2022/04/11 08:38:22;;;;;;;1.40;1.30;;;26.70;38.80;;;;;;5054112;28;20194;-76
2022/04/11 08:40:49;;;;;;;1.30;1.20;;;27.20;39.10;;;;;;5054310;28;20583;-76
2022/04/11 08:43:15;;;;;;;1.33;1.23;;;27.40;37.40;;;;;;5052887;28;20175;-76
2022/04/11 08:45:41;;;;;;;1.87;1.60;;;28.20;37.40;;;;;;5054200;28;20825;-76
2022/04/11 08:48:07;;;;;;;1.50;1.20;;;28.70;36.80;;;;;;5053907;28;20503;-76
2022/04/11 08:50:33;;;;;;;1.50;1.40;;;29.10;35.70;;;;;;5054157;28;20171;-76
2022/04/11 08:52:58;;;;;;;1.50;1.40;;;28.90;35.00;;;;;;5054067;28;20402;-76
2022/04/11 08:55:24;;;;;;;1.77;1.57;;;29.00;34.00;;;;;;5052464;28;20222;-76
2022/04/11 08:57:50;;;;;;;1.50;1.20;;;29.40;35.00;;;;;;5053848;28;20553;-76
2022/04/11 09:00:23;;;;;;;1.10;1.00;;;30.20;33.80;;;;;;5053937;28;20201;-76
2022/04/11 09:02:48;;;;;;;1.20;1.10;;;30.50;31.70;;;;;;5052643;28;20500;-76
2022/04/11 09:05:22;;;;;;;1.17;1.07;;;31.30;32.20;;;;;;5052532;28;20480;-76
2022/04/11 09:07:52;;;;;;;2.20;1.20;;;32.10;30.80;;;;;;5053603;28;20571;-73
2022/04/11 09:10:19;;;;;;;1.10;1.00;;;31.50;29.60;;;;;;5053827;28;20421;-74
2022/04/11 09:12:55;;;;;;;1.37;1.10;;;30.90;30.50;;;;;;5053703;28;20488;-73
2022/04/11 09:15:25;;;;;;;1.10;1.00;;;30.40;29.00;;;;;;5053504;28;20714;-73
2022/04/11 09:17:51;;;;;;;2.07;1.60;;;29.70;29.60;;;;;;5053469;28;20455;-73
2022/04/11 09:20:21;;;;;;;1.00;0.87;;;29.70;31.10;;;;;;5053471;28;20480;-73
2022/04/11 09:22:47;;;;;;;1.57;1.47;;;30.10;30.00;;;;;;5053519;28;20398;-73
2022/04/11 09:25:15;;;;;;;3.03;1.27;;;30.60;30.10;;;;;;5053330;28;20404;-73
2022/04/11 09:27:41;;;;;;;1.77;1.60;;;31.10;29.70;;;;;;5053154;28;20163;-73
2022/04/11 09:30:26;;;;;;;3.63;2.70;;;30.90;29.50;;;;;;5052317;28;20910;-73
2022/04/11 09:33:02;;;;;;;1.53;1.43;;;30.40;28.80;;;;;;5053335;28;20771;-73
2022/04/11 09:35:36;;;;;;;1.27;1.00;;;29.90;29.00;;;;;;5052076;28;20600;-73
2022/04/11 09:38:10;;;;;;;1.30;1.10;;;29.30;29.10;;;;;;5051548;28;20414;-74
2022/04/11 09:40:49;;;;;;;1.00;0.90;;;29.50;30.00;;;;;;5053154;28;20402;-73
2022/04/11 09:43:26;;;;;;;1.30;1.10;;;29.90;30.20;;;;;;5053104;28;20409;-73
2022/04/11 09:45:52;;;;;;;1.10;1.00;;;30.50;29.40;;;;;;5053082;28;20812;-74
2022/04/11 09:48:27;;;;;;;1.43;1.33;;;30.70;29.60;;;;;;5052662;28;20926;-74
2022/04/11 09:50:55;;;;;;;2.07;1.30;;;29.90;28.60;;;;;;5053008;28;20492;-73
2022/04/11 09:53:24;;;;;;;1.00;0.90;;;29.50;28.90;;;;;;5051491;28;20445;-73
2022/04/11 09:55:51;;;;;;;1.43;1.23;;;29.50;29.80;;;;;;5052229;28;20468;-73
2022/04/11 09:58:19;;;;;;;1.00;0.90;;;28.60;28.90;;;;;;5052627;28;20397;-73
2022/04/11 10:00:45;;;;;;;1.40;1.30;;;28.90;28.80;;;;;;5052728;28;20421;-73
2022/04/11 10:03:11;;;;;;;2.20;2.00;;;29.20;29.00;;;;;;5052671;28;20402;-73
2022/04/11 10:05:40;;;;;;;2.50;1.00;;;29.30;29.10;;;;;;5052538;28;20428;-73
2022/04/11 10:08:08;;;;;;;2.50;1.67;;;27.90;29.10;;;;;;5052294;28;20167;-74
2022/04/11 10:10:38;;;;;;;2.70;1.10;;;28.40;29.50;;;;;;5051915;28;20424;-73
2022/04/11 10:13:12;;;;;;;1.50;1.23;;;28.50;28.60;;;;;;5052256;28;20414;-73
2022/04/11 10:15:39;;;;;;;1.10;1.00;;;28.90;28.70;;;;;;5050979;28;20471;-73
2022/04/11 10:18:07;;;;;;;1.07;0.90;;;28.20;27.60;;;;;;5052252;28;20429;-73
2022/04/11 10:20:38;;;;;;;2.07;1.27;;;28.30;28.40;;;;;;5052520;28;20435;-76
2022/04/11 10:23:13;;;;;;;1.37;1.10;;;28.60;28.00;;;;;;5051955;28;20422;-75
2022/04/11 10:25:47;;;;;;;6.40;1.00;;;27.20;28.00;;;;;;5051666;28;20432;-73
2022/04/11 10:28:23;;;;;;;1.53;1.13;;;28.70;29.80;;;;;;5051609;28;20459;-74
2022/04/11 10:31:10;;;;;;;4.93;1.10;;;30.10;29.80;;;;;;5051968;28;20415;-73
2022/04/11 10:33:55;;;;;;;1.73;1.40;;;31.00;28.50;;;;;;5051833;28;20413;-74
2022/04/11 10:36:32;;;;;;;0.90;0.70;;;30.40;27.00;;;;;;5051830;28;20549;-73
2022/04/11 10:39:12;;;;;;;1.00;0.83;;;30.10;27.20;;;;;;5049285;28;20838;-75
2022/04/11 10:41:56;;;;;;;1.40;1.27;;;28.90;27.10;;;;;;5051297;28;20499;-76
2022/04/11 10:44:32;;;;;;;1.83;1.20;;;28.80;28.90;;;;;;5051538;28;20485;-76
2022/04/11 10:47:10;;;;;;;1.43;0.97;;;28.10;27.80;;;;;;5049949;28;20944;-76
2022/04/11 10:49:50;;;;;;;0.90;0.80;;;27.60;28.40;;;;;;5051713;28;20432;-76
2022/04/11 10:52:41;;;;;;;0.90;0.70;;;27.40;28.30;;;;;;5050395;28;21436;-76
2022/04/11 10:55:18;;;;;;;0.90;0.80;;;27.10;29.30;;;;;;5051427;28;20837;-75
2022/04/11 10:57:47;;;;;;;1.07;0.97;;;28.40;29.60;;;;;;5051488;28;20440;-75
2022/04/11 11:00:23;;;;;;;0.90;0.73;;;29.50;28.80;;;;;;5051533;28;20412;-76
2022/04/11 11:05:25;;;;;;;1.20;0.80;;;29.30;28.60;;;;;;5051545;28;20407;-75
2022/04/11 11:08:13;;;;;;;1.90;1.00;;;28.70;27.50;;;;;;5051312;28;20408;-76
2022/04/11 11:10:49;;;;;;;1.00;0.80;;;27.90;27.90;;;;;;5051537;28;20409;-76
2022/04/11 11:13:32;;;;;;;1.17;0.90;;;28.10;29.40;;;;;;5051394;28;20398;-76
2022/04/11 11:16:21;;;;;;;1.23;1.13;;;27.50;27.80;;;;;;5051349;28;20464;-76
2022/04/11 11:18:50;;;;;;;0.90;0.80;;;27.10;28.50;;;;;;5051026;28;20492;-76
2022/04/11 11:21:28;;;;;;;1.03;0.90;;;27.20;29.00;;;;;;5050309;28;20760;-76
2022/04/11 11:24:12;;;;;;;0.90;0.80;;;27.90;28.90;;;;;;5050099;28;20420;-76
2022/04/11 11:26:45;;;;;;;1.20;1.00;;;27.70;29.10;;;;;;5051311;28;20536;-73
2022/04/11 11:29:23;;;;;;;1.50;1.20;;;28.20;28.70;;;;;;5050982;28;20440;-73
2022/04/11 11:31:51;;;;;;;1.10;1.00;;;28.70;29.30;;;;;;5051408;28;20412;-74
2022/04/11 11:34:19;;;;;;;0.90;0.80;;;29.80;29.60;;;;;;5049935;28;20521;-74
2022/04/11 11:36:44;;;;;;;4.77;1.77;;;31.10;29.40;;;;;;5051017;28;20460;-74
2022/04/11 11:39:16;;;;;;;1.00;0.90;;;32.10;28.90;;;;;;5050964;28;20417;-74
2022/04/11 11:41:42;;;;;;;1.40;1.20;;;32.10;27.10;;;;;;5051276;28;20197;-74
2022/04/11 11:44:09;;;;;;;1.00;0.90;;;31.40;26.80;;;;;;5049894;28;20480;-74
2022/04/11 11:46:48;;;;;;;1.13;1.03;;;30.80;27.30;;;;;;5051054;28;20934;-74
2022/04/11 11:49:15;;;;;;;1.23;1.13;;;31.60;28.30;;;;;;5050798;28;20763;-74
2022/04/11 11:51:41;;;;;;;1.10;1.00;;;32.30;27.70;;;;;;5051067;28;20401;-74
2022/04/11 11:54:06;;;;;;;2.10;1.60;;;33.10;27.90;;;;;;5051088;28;20412;-74
2022/04/11 11:56:46;;;;;;;1.10;1.00;;;34.10;27.20;;;;;;5050990;28;20229;-74
2022/04/11 11:59:13;;;;;;;1.63;1.53;;;34.60;26.80;;;;;;5052465;28;20171;-74
2022/04/11 12:01:39;;;;;;;1.20;1.00;;;34.80;26.10;;;;;;5054776;28;20462;-74
2022/04/11 12:04:21;;;;;;;1.20;1.00;;;34.90;26.30;;;;;;5054804;28;20405;-74
2022/04/11 12:06:54;;;;;;;1.30;1.20;;;35.40;26.30;;;;;;5054587;28;20424;-75
2022/04/11 12:09:20;;;;;;;1.60;1.50;;;35.90;25.40;;;;;;5054390;28;20411;-75
2022/04/11 12:11:45;;;;;;;1.63;1.07;;;35.40;25.00;;;;;;5054588;28;20401;-74
2022/04/11 12:14:11;;;;;;;2.23;1.93;;;36.00;25.20;;;;;;5054595;28;20489;-74
2022/04/11 12:16:39;;;;;;;1.00;0.90;;;35.10;24.70;;;;;;5054349;28;20210;-74
2022/04/11 12:19:05;;;;;;;1.60;1.40;;;35.50;25.90;;;;;;5054277;28;20175;-74
2022/04/11 12:21:37;;;;;;;1.00;0.90;;;36.20;25.60;;;;;;5054442;28;20460;-75
2022/04/11 12:24:04;;;;;;;1.10;1.00;;;37.30;25.10;;;;;;5054428;28;20463;-74
2022/04/11 12:26:35;;;;;;;1.37;1.27;;;37.70;24.50;;;;;;5054524;28;20824;-73
2022/04/11 12:29:21;;;;;;;1.70;1.60;;;37.00;24.10;;;;;;5054006;28;20500;-74
2022/04/11 12:31:58;;;;;;;1.73;1.27;;;36.70;24.10;;;;;;5054052;28;20429;-75
2022/04/11 12:34:33;;;;;;;1.43;1.00;;;37.00;24.70;;;;;;5054173;28;20440;-75
2022/04/11 12:37:05;;;;;;;2.37;1.40;;;37.00;23.70;;;;;;5054070;28;20444;-75
2022/04/11 12:39:31;;;;;;;1.30;1.10;;;37.20;24.50;;;;;;5054032;28;20413;-74
2022/04/11 12:41:57;;;;;;;1.23;1.13;;;37.90;24.60;;;;;;5054183;28;20427;-75
2022/04/11 12:44:36;;;;;;;1.20;1.03;;;38.60;24.10;;;;;;5053949;28;20898;-75
2022/04/11 12:47:02;;;;;;;1.40;1.30;;;39.30;24.20;;;;;;5054183;28;20926;-75
2022/04/11 12:49:45;;;;;;;1.17;1.00;;;39.70;23.90;;;;;;5052341;28;20416;-75
2022/04/11 12:52:11;;;;;;;1.17;1.07;;;39.70;23.00;;;;;;5052617;28;20643;-75
2022/04/11 12:54:40;;;;;;;2.23;1.83;;;38.60;22.40;;;;;;5053637;28;20508;-74
2022/04/11 12:57:07;;;;;;;1.53;1.43;;;38.20;23.80;;;;;;5053598;28;20244;-74